Time;durP1;ratioP1;P1;durP2;ratioP2;P2;SDS_P1;SDS_P2;PMS_P1;PMS_P2;Temp;Humidity;BMP_temperature;BMP_pressure;BME280_temperature;BME280_humidity;BME280_pressure;Samples;Min_cycle;Max_cycle;Signal;HPM_P1;HPM_P2
2022/04/01 00:01:49;;;;;;;2.90;1.13;;;5.10;1.00;;;;;;5014799;28;20502;-69
2022/04/01 00:04:17;;;;;;;0.60;0.20;;;5.10;1.00;;;;;;5015696;28;20850;-69
2022/04/01 00:06:45;;;;;;;0.60;0.37;;;5.10;1.00;;;;;;5019443;28;20448;-69
2022/04/01 00:09:12;;;;;;;2.20;2.10;;;5.00;1.00;;;;;;5017387;28;20473;-69
2022/04/01 00:11:40;;;;;;;0.70;0.50;;;5.00;1.00;;;;;;5017071;28;20500;-67
2022/04/01 00:14:09;;;;;;;0.60;0.20;;;5.00;1.00;;;;;;5015840;28;20445;-68
2022/04/01 00:16:37;;;;;;;3.77;3.17;;;5.00;1.00;;;;;;5014448;28;20883;-69
2022/04/01 00:19:05;;;;;;;4.50;2.37;;;4.90;1.00;;;;;;5014525;28;20453;-68
2022/04/01 00:21:34;;;;;;;1.17;0.57;;;4.90;1.00;;;;;;5014932;28;20476;-69
2022/04/01 00:24:02;;;;;;;6.73;2.37;;;4.90;1.00;;;;;;5015586;28;20457;-67
2022/04/01 00:26:30;;;;;;;1.27;0.93;;;4.90;1.00;;;;;;5014918;28;20441;-69
2022/04/01 00:28:58;;;;;;;0.80;0.73;;;4.90;1.00;;;;;;5015039;28;20512;-68
2022/04/01 00:31:27;;;;;;;4.90;4.53;;;4.90;1.00;;;;;;5014443;28;20451;-69
2022/04/01 00:34:15;;;;;;;2.00;1.60;;;4.90;1.00;;;;;;5014415;28;20547;-68
2022/04/01 00:36:43;;;;;;;0.50;0.10;;;4.90;1.00;;;;;;5015305;28;20452;-68
2022/04/01 00:39:12;;;;;;;1.57;0.93;;;4.90;1.00;;;;;;5015579;28;20451;-69
2022/04/01 00:41:40;;;;;;;4.70;2.70;;;4.90;1.00;;;;;;5014231;28;20493;-68
2022/04/01 00:44:18;;;;;;;1.63;1.53;;;4.90;1.00;;;;;;5015336;28;20525;-67
2022/04/01 00:46:54;;;;;;;3.90;1.90;;;4.90;1.00;;;;;;5014398;28;20445;-68
2022/04/01 00:49:22;;;;;;;3.03;2.23;;;4.90;1.00;;;;;;5014421;28;20947;-68
2022/04/01 00:51:52;;;;;;;2.30;1.77;;;4.80;1.00;;;;;;5014534;28;20469;-67
2022/04/01 00:54:20;;;;;;;3.30;3.00;;;4.80;1.00;;;;;;5013990;28;20483;-67
2022/04/01 00:56:48;;;;;;;2.67;2.53;;;4.80;1.00;;;;;;5013606;28;20444;-68
2022/04/01 00:59:17;;;;;;;5.30;4.10;;;4.80;1.00;;;;;;5013062;28;20453;-68
2022/04/01 01:01:49;;;;;;;2.20;2.00;;;4.80;1.00;;;;;;5013615;28;20495;-68
2022/04/01 01:04:19;;;;;;;0.83;0.40;;;4.70;1.00;;;;;;5014068;28;20855;-69
2022/04/01 01:06:49;;;;;;;0.70;0.53;;;4.70;1.00;;;;;;5012961;28;20443;-69
2022/04/01 01:09:17;;;;;;;6.17;5.70;;;4.70;1.00;;;;;;5013437;28;20451;-68
2022/04/01 01:11:46;;;;;;;4.17;3.87;;;4.80;1.00;;;;;;5013366;28;20468;-68
2022/04/01 01:14:15;;;;;;;2.63;2.13;;;4.70;1.00;;;;;;5013674;28;20455;-69
2022/04/01 01:16:45;;;;;;;3.70;3.33;;;4.70;1.00;;;;;;5005327;28;20855;-68
2022/04/01 01:19:16;;;;;;;1.07;0.87;;;4.70;1.00;;;;;;5013710;28;20801;-69
2022/04/01 01:21:45;;;;;;;4.07;3.70;;;4.80;1.00;;;;;;5015050;28;20986;-70
2022/04/01 01:24:16;;;;;;;1.33;0.97;;;4.70;1.00;;;;;;5016406;28;20571;-68
2022/04/01 01:26:52;;;;;;;1.40;1.30;;;4.80;1.00;;;;;;5030579;28;20470;-67
2022/04/01 01:29:23;;;;;;;1.27;1.13;;;4.80;1.00;;;;;;5033182;28;20822;-69
2022/04/01 01:31:52;;;;;;;1.10;0.80;;;4.70;1.00;;;;;;5033013;28;20452;-70
2022/04/01 01:34:20;;;;;;;4.00;3.60;;;4.70;1.00;;;;;;5032937;28;20456;-68
2022/04/01 01:36:48;;;;;;;0.60;0.37;;;4.70;1.00;;;;;;5033010;28;20825;-68
2022/04/01 01:39:16;;;;;;;4.47;2.73;;;4.70;1.00;;;;;;5032940;28;20456;-68
2022/04/01 01:41:46;;;;;;;0.50;0.10;;;4.70;1.00;;;;;;5032685;28;20489;-68
2022/04/01 01:44:14;;;;;;;2.77;1.60;;;4.70;1.00;;;;;;5032539;28;20451;-68
2022/04/01 01:46:42;;;;;;;2.53;2.30;;;4.70;1.00;;;;;;5032264;28;20455;-67
2022/04/01 01:49:11;;;;;;;2.97;2.77;;;4.70;1.00;;;;;;5032409;28;20942;-67
2022/04/01 01:57:12;;;;;;;2.87;2.60;;;4.60;1.00;;;;;;5032722;28;20450;-69
2022/04/01 01:59:39;;;;;;;1.70;1.60;;;4.70;1.00;;;;;;5032759;28;20447;-68
2022/04/01 02:02:08;;;;;;;0.57;0.30;;;4.60;1.00;;;;;;5032783;28;20488;-68
2022/04/01 02:04:37;;;;;;;4.67;1.63;;;4.90;1.00;;;;;;5032301;28;20456;-67
2022/04/01 02:07:05;;;;;;;1.13;1.03;;;4.70;1.00;;;;;;5033188;28;20750;-68
2022/04/01 02:09:33;;;;;;;1.80;1.70;;;4.70;1.00;;;;;;5032374;28;20885;-70
2022/04/01 02:12:01;;;;;;;0.60;0.30;;;4.70;1.00;;;;;;5032639;28;20456;-69
2022/04/01 02:14:31;;;;;;;0.60;0.40;;;4.60;1.00;;;;;;5032381;28;20547;-69
2022/04/01 02:16:59;;;;;;;5.60;3.50;;;4.60;1.00;;;;;;5032204;28;20451;-69
2022/04/01 02:19:27;;;;;;;2.47;2.00;;;4.60;1.00;;;;;;5032204;28;20449;-68
2022/04/01 02:21:55;;;;;;;1.50;1.40;;;4.60;1.00;;;;;;5032404;28;20500;-69
2022/04/01 02:24:24;;;;;;;0.70;0.50;;;;;;;;;;5032283;28;20448;-69
2022/04/01 02:26:52;;;;;;;0.67;0.50;;;4.60;1.00;;;;;;5014439;28;20450;-69
2022/04/01 02:29:23;;;;;;;0.60;0.30;;;4.60;1.00;;;;;;5012341;28;20887;-69
2022/04/01 02:31:53;;;;;;;2.73;2.63;;;4.70;1.00;;;;;;5013853;28;20477;-68
2022/04/01 02:34:23;;;;;;;0.60;0.40;;;4.70;1.00;;;;;;5016507;28;20449;-68
2022/04/01 02:36:52;;;;;;;0.70;0.40;;;4.70;1.00;;;;;;5014889;28;20446;-68
2022/04/01 02:39:20;;;;;;;0.60;0.43;;;4.70;1.00;;;;;;5012271;28;20449;-69
2022/04/01 02:41:48;;;;;;;8.93;5.27;;;4.70;1.00;;;;;;5011596;28;20483;-68
2022/04/01 02:44:16;;;;;;;5.13;4.73;;;4.70;1.00;;;;;;5012427;28;20447;-68
2022/04/01 02:46:46;;;;;;;2.67;2.57;;;4.60;1.00;;;;;;5012109;28;20455;-69
2022/04/01 02:49:17;;;;;;;2.53;2.33;;;4.60;1.00;;;;;;5012009;28;20947;-69
2022/04/01 02:51:46;;;;;;;0.93;0.83;;;4.60;1.00;;;;;;5012743;28;20551;-68
2022/04/01 02:54:14;;;;;;;2.00;1.53;;;4.60;1.00;;;;;;5012674;28;20454;-68
2022/04/01 02:56:43;;;;;;;8.57;4.13;;;4.50;1.00;;;;;;5012587;28;20790;-71
2022/04/01 02:59:11;;;;;;;9.47;3.23;;;4.50;1.00;;;;;;5013034;28;20895;-69
2022/04/01 03:01:41;;;;;;;2.27;2.07;;;4.50;1.00;;;;;;5012280;28;20490;-69
2022/04/01 03:04:10;;;;;;;1.53;1.43;;;4.50;1.00;;;;;;5013013;28;20538;-68
2022/04/01 03:06:42;;;;;;;1.60;1.50;;;4.50;1.00;;;;;;5012032;28;20502;-69
2022/04/01 03:09:10;;;;;;;1.17;1.07;;;4.50;1.00;;;;;;5012256;28;20450;-67
2022/04/01 03:11:39;;;;;;;0.50;0.10;;;4.50;1.00;;;;;;5012260;28;20462;-68
2022/04/01 03:14:08;;;;;;;0.50;0.10;;;4.50;1.00;;;;;;5011740;28;20478;-69
2022/04/01 03:16:37;;;;;;;0.60;0.37;;;4.50;1.00;;;;;;5012104;28;20499;-66
2022/04/01 03:19:08;;;;;;;2.67;1.93;;;4.60;1.00;;;;;;5012285;28;20449;-68
2022/04/01 03:21:38;;;;;;;2.13;0.80;;;4.60;1.00;;;;;;5015129;28;20881;-67
2022/04/01 03:24:09;;;;;;;0.80;0.60;;;4.60;1.00;;;;;;5018193;28;20445;-68
2022/04/01 03:26:37;;;;;;;1.80;1.70;;;4.60;1.00;;;;;;5033053;28;20436;-68
2022/04/01 03:29:06;;;;;;;2.70;2.53;;;4.60;1.00;;;;;;5035603;28;20463;-69
2022/04/01 03:31:34;;;;;;;0.83;0.83;;;4.50;1.00;;;;;;5035625;28;20478;-70
2022/04/01 03:34:03;;;;;;;7.87;4.10;;;4.50;1.00;;;;;;5036200;28;20470;-68
2022/04/01 03:36:31;;;;;;;3.03;1.23;;;4.50;1.00;;;;;;5036667;28;20542;-68
2022/04/01 03:38:59;;;;;;;3.83;3.50;;;4.40;1.00;;;;;;5036430;28;20926;-68
2022/04/01 03:41:30;;;;;;;1.80;1.53;;;4.40;1.00;;;;;;5036046;28;20491;-67
2022/04/01 03:44:00;;;;;;;2.63;1.80;;;4.30;1.00;;;;;;5036617;28;20474;-68
2022/04/01 03:46:40;;;;;;;1.90;1.80;;;4.30;1.00;;;;;;5036569;28;20456;-69
2022/04/01 03:49:11;;;;;;;0.60;0.20;;;4.40;1.00;;;;;;5036199;28;20451;-69
2022/04/01 03:51:40;;;;;;;1.57;1.13;;;4.30;1.00;;;;;;5038450;28;20471;-68
2022/04/01 03:54:10;;;;;;;2.90;2.20;;;4.30;1.00;;;;;;5036606;28;20459;-68
2022/04/01 03:56:39;;;;;;;1.37;1.27;;;4.30;1.00;;;;;;5035326;28;20449;-69
2022/04/01 03:59:09;;;;;;;3.43;1.60;;;4.30;1.00;;;;;;5035558;28;20442;-69
2022/04/01 04:01:38;;;;;;;8.93;2.40;;;4.30;1.00;;;;;;5066830;22;21700;-76
2022/04/01 04:04:07;;;;;;;0.70;0.70;;;4.30;1.00;;;;;;5015127;28;20535;-76
2022/04/01 04:06:36;;;;;;;2.10;1.43;;;4.30;1.00;;;;;;5015292;28;20485;-75
2022/04/01 04:09:05;;;;;;;2.80;1.30;;;4.40;1.00;;;;;;5015505;28;20473;-77
2022/04/01 04:11:34;;;;;;;0.80;0.70;;;4.30;1.00;;;;;;5020641;28;20457;-76
2022/04/01 04:14:04;;;;;;;0.60;0.10;;;4.20;1.00;;;;;;5040849;28;20569;-74
2022/04/01 04:16:40;;;;;;;1.77;0.43;;;4.20;1.00;;;;;;5040980;28;20531;-76
2022/04/01 04:19:10;;;;;;;1.73;1.63;;;4.30;1.00;;;;;;5035458;28;20441;-77
2022/04/01 04:21:42;;;;;;;0.50;0.20;;;4.30;1.00;;;;;;5039118;28;20509;-76
2022/04/01 04:24:18;;;;;;;1.50;1.40;;;4.30;1.00;;;;;;5038475;28;20426;-76
2022/04/01 04:26:49;;;;;;;2.20;2.00;;;4.20;1.00;;;;;;5068692;28;20554;-77
2022/04/01 04:29:19;;;;;;;1.30;1.20;;;4.20;1.00;;;;;;5074659;28;20442;-76
2022/04/01 04:31:59;;;;;;;1.20;0.80;;;4.10;1.00;;;;;;5075145;28;20794;-74
2022/04/01 04:34:31;;;;;;;1.60;1.50;;;4.10;1.00;;;;;;5059669;28;20460;-77
2022/04/01 04:36:59;;;;;;;2.23;1.60;;;4.10;1.00;;;;;;5055855;28;20971;-77
2022/04/01 04:39:32;;;;;;;1.00;0.73;;;4.10;1.00;;;;;;5047016;28;20466;-75
2022/04/01 04:42:01;;;;;;;1.27;1.10;;;4.10;1.00;;;;;;5051196;28;20980;-76
2022/04/01 04:44:30;;;;;;;2.80;2.07;;;4.10;1.00;;;;;;5054542;28;20935;-75
2022/04/01 04:46:59;;;;;;;3.33;2.70;;;4.10;1.00;;;;;;5054738;28;20476;-76
2022/04/01 04:49:28;;;;;;;2.60;2.30;;;4.00;1.00;;;;;;5056830;28;20435;-74
2022/04/01 04:51:57;;;;;;;2.00;1.37;;;3.90;1.00;;;;;;5057804;28;20461;-75
2022/04/01 04:54:28;;;;;;;1.73;1.23;;;3.90;1.00;;;;;;5056146;28;20439;-76
2022/04/01 04:56:57;;;;;;;9.80;3.83;;;3.90;1.00;;;;;;5054897;28;20462;-76
2022/04/01 04:59:26;;;;;;;2.83;1.33;;;3.80;1.00;;;;;;5055073;28;20440;-76
2022/04/01 05:02:04;;;;;;;0.67;0.50;;;3.80;1.00;;;;;;5055888;28;20563;-76
2022/04/01 05:05:02;;;;;;;1.53;1.43;;;3.80;1.00;;;;;;5058144;28;20441;-74
2022/04/01 05:07:47;;;;;;;1.70;1.37;;;3.80;1.00;;;;;;5066094;28;20897;-76
2022/04/01 05:10:18;;;;;;;0.83;0.40;;;3.70;1.00;;;;;;5065400;28;20453;-75
2022/04/01 05:12:58;;;;;;;2.00;1.87;;;3.70;1.00;;;;;;5062007;28;20454;-76
2022/04/01 05:15:30;;;;;;;0.70;0.70;;;3.70;1.00;;;;;;5063103;28;20455;-77
2022/04/01 05:18:06;;;;;;;1.63;1.37;;;3.70;1.00;;;;;;5057711;28;20440;-76
2022/04/01 05:20:38;;;;;;;1.57;1.40;;;3.70;1.00;;;;;;5055402;28;20436;-75
2022/04/01 05:23:12;;;;;;;3.00;2.80;;;3.70;1.00;;;;;;5054905;28;21009;-76
2022/04/01 05:25:44;;;;;;;2.63;2.07;;;3.60;1.00;;;;;;5062608;28;20458;-74
2022/04/01 05:28:22;;;;;;;1.60;1.50;;;3.60;1.00;;;;;;5074745;28;20439;-76
2022/04/01 05:31:06;;;;;;;2.10;1.27;;;3.60;1.00;;;;;;5074075;28;20553;-74
2022/04/01 05:33:42;;;;;;;2.67;2.57;;;3.60;1.00;;;;;;5075499;28;20454;-77
2022/04/01 05:36:10;;;;;;;4.70;1.97;;;3.60;1.00;;;;;;5074860;28;20481;-76
2022/04/01 05:38:40;;;;;;;3.30;3.00;;;3.60;1.00;;;;;;5075781;28;20467;-76
2022/04/01 05:41:08;;;;;;;4.07;3.60;;;3.60;1.00;;;;;;5077087;28;20465;-74
2022/04/01 05:43:38;;;;;;;1.07;0.53;;;3.60;1.00;;;;;;5084265;28;20496;-77
2022/04/01 05:46:07;;;;;;;0.50;0.10;;;3.60;1.00;;;;;;5084158;28;20453;-75
2022/04/01 05:48:38;;;;;;;3.03;1.53;;;3.60;1.00;;;;;;5084818;28;20445;-75
2022/04/01 05:51:08;;;;;;;1.33;1.23;;;3.60;1.00;;;;;;5060071;28;20765;-78
2022/04/01 05:53:38;;;;;;;3.00;1.30;;;3.60;1.00;;;;;;5060154;28;20777;-76
2022/04/01 05:56:09;;;;;;;1.63;1.30;;;3.70;1.00;;;;;;5059238;28;20445;-75
2022/04/01 05:58:37;;;;;;;3.07;2.87;;;3.70;1.00;;;;;;5054550;28;20460;-75
2022/04/01 06:01:15;;;;;;;1.60;1.13;;;3.70;1.00;;;;;;5054330;28;20524;-76
2022/04/01 06:04:14;;;;;;;0.73;0.50;;;3.70;1.00;;;;;;5054177;28;20474;-76
2022/04/01 06:06:43;;;;;;;2.97;0.97;;;3.60;1.00;;;;;;5041556;28;20477;-78
2022/04/01 06:09:26;;;;;;;5.30;2.67;;;3.60;1.00;;;;;;5034012;28;20456;-76
2022/04/01 06:12:01;;;;;;;0.73;0.37;;;3.70;1.00;;;;;;5033224;28;20467;-76
2022/04/01 06:14:36;;;;;;;2.93;2.70;;;3.60;1.00;;;;;;5042865;28;20446;-77
2022/04/01 06:17:12;;;;;;;1.97;1.77;;;3.60;1.00;;;;;;5053766;28;20453;-76
2022/04/01 06:19:45;;;;;;;4.53;2.93;;;3.60;1.00;;;;;;5054012;28;20965;-76
2022/04/01 06:22:15;;;;;;;2.13;1.93;;;3.60;1.00;;;;;;5055055;28;20459;-77
2022/04/01 06:24:48;;;;;;;6.37;4.57;;;3.60;1.00;;;;;;5053390;28;21005;-76
2022/04/01 06:27:23;;;;;;;0.93;0.73;;;3.60;1.00;;;;;;5073263;28;20446;-75
2022/04/01 06:30:03;;;;;;;2.40;2.17;;;3.60;1.00;;;;;;5073713;28;20447;-75
2022/04/01 06:32:49;;;;;;;4.77;3.30;;;3.50;1.00;;;;;;5074346;28;20483;-76
2022/04/01 06:35:22;;;;;;;3.43;2.47;;;3.60;1.00;;;;;;5073350;28;20922;-76
2022/04/01 06:37:57;;;;;;;2.80;2.30;;;3.60;1.00;;;;;;5072997;28;20447;-76
2022/04/01 06:40:29;;;;;;;2.63;2.00;;;3.50;1.00;;;;;;5072754;28;20964;-78
2022/04/01 06:42:58;;;;;;;0.60;0.30;;;3.50;1.00;;;;;;5072548;28;20519;-77
2022/04/01 06:45:27;;;;;;;1.57;1.33;;;3.50;1.00;;;;;;5073678;28;20445;-76
2022/04/01 06:47:54;;;;;;;1.67;0.63;;;3.60;1.00;;;;;;5072676;28;20933;-76
2022/04/01 06:50:24;;;;;;;0.60;0.50;;;3.50;1.00;;;;;;5072827;28;20615;-76
2022/04/01 06:52:52;;;;;;;1.30;1.20;;;3.60;1.00;;;;;;5072631;28;20468;-76
2022/04/01 06:55:22;;;;;;;0.60;0.50;;;3.50;1.00;;;;;;5072712;28;20478;-76
2022/04/01 06:57:50;;;;;;;1.53;1.37;;;3.60;1.00;;;;;;5075113;28;20463;-76
2022/04/01 07:00:18;;;;;;;0.70;0.63;;;3.50;1.00;;;;;;5076619;28;20453;-75
2022/04/01 07:02:47;;;;;;;3.77;2.00;;;3.50;1.00;;;;;;5077472;28;20470;-77
2022/04/01 07:05:15;;;;;;;1.40;1.27;;;3.50;1.00;;;;;;5063699;28;20496;-78
2022/04/01 07:07:45;;;;;;;5.43;3.03;;;3.40;1.00;;;;;;5048521;28;20500;-76
2022/04/01 07:10:13;;;;;;;1.67;1.33;;;3.40;1.00;;;;;;5055888;28;20443;-76
2022/04/01 07:12:42;;;;;;;2.00;1.87;;;3.30;1.00;;;;;;5056081;28;20470;-77
2022/04/01 07:15:11;;;;;;;0.83;0.80;;;3.30;1.00;;;;;;5056188;28;21031;-77
2022/04/01 07:17:40;;;;;;;4.00;3.10;;;3.40;1.00;;;;;;5057172;28;20448;-75
2022/04/01 07:20:11;;;;;;;0.97;0.70;;;3.40;1.00;;;;;;5059301;28;20455;-76
2022/04/01 07:22:53;;;;;;;2.00;1.60;;;3.40;1.00;;;;;;5062660;28;20471;-76
2022/04/01 07:25:22;;;;;;;1.33;1.23;;;3.40;1.00;;;;;;5058245;28;20469;-76
2022/04/01 07:27:50;;;;;;;4.23;3.63;;;3.50;1.00;;;;;;5052491;28;20935;-76
2022/04/01 07:30:18;;;;;;;2.40;1.27;;;3.50;1.00;;;;;;5058166;28;20452;-76
2022/04/01 07:32:50;;;;;;;1.83;1.53;;;3.50;1.00;;;;;;5059142;28;20557;-76
2022/04/01 07:35:18;;;;;;;2.00;1.70;;;3.60;1.00;;;;;;5058754;28;20474;-77
2022/04/01 07:37:46;;;;;;;3.10;2.73;;;3.60;1.00;;;;;;5058464;28;20442;-77
2022/04/01 07:40:22;;;;;;;7.10;2.23;;;3.50;1.00;;;;;;5057255;28;20527;-76
2022/04/01 07:42:51;;;;;;;0.60;0.40;;;3.40;1.00;;;;;;5057031;28;20463;-76
2022/04/01 07:45:19;;;;;;;1.97;1.40;;;3.10;1.00;;;;;;5060886;28;20506;-76
2022/04/01 07:47:48;;;;;;;6.03;3.77;;;3.40;1.00;;;;;;5058319;28;20459;-76
2022/04/01 07:50:18;;;;;;;1.10;1.10;;;3.40;1.00;;;;;;5057346;28;20553;-76
2022/04/01 07:52:46;;;;;;;0.70;0.60;;;3.40;1.00;;;;;;5056939;28;20549;-76
2022/04/01 07:55:16;;;;;;;4.40;0.80;;;3.40;1.00;;;;;;5056593;28;20441;-76
2022/04/01 07:57:46;;;;;;;1.27;0.97;;;3.40;1.00;;;;;;5056158;28;20471;-77
2022/04/01 08:00:16;;;;;;;5.43;1.30;;;3.40;1.00;;;;;;5056351;28;20517;-76
2022/04/01 08:02:44;;;;;;;5.47;2.37;;;3.40;1.00;;;;;;5058084;28;20475;-76
2022/04/01 08:05:13;;;;;;;0.57;0.20;;;3.40;1.00;;;;;;5048613;28;20551;-78
2022/04/01 08:07:41;;;;;;;7.10;1.90;;;3.40;1.00;;;;;;5049854;28;20451;-76
2022/04/01 08:10:09;;;;;;;2.83;2.57;;;3.50;1.00;;;;;;5058031;28;20485;-76
2022/04/01 08:12:43;;;;;;;2.70;2.50;;;3.50;1.00;;;;;;5072284;28;20918;-75
2022/04/01 08:15:13;;;;;;;0.80;0.80;;;3.50;1.00;;;;;;5053312;28;20522;-76
2022/04/01 08:17:42;;;;;;;3.73;2.40;;;3.50;1.00;;;;;;5056866;28;20959;-76
2022/04/01 08:20:12;;;;;;;1.60;1.13;;;3.50;1.00;;;;;;5058399;28;20447;-75
2022/04/01 08:22:40;;;;;;;1.20;1.10;;;3.50;1.00;;;;;;5053216;28;20986;-76
2022/04/01 08:25:09;;;;;;;0.80;0.70;;;3.50;1.00;;;;;;5058918;28;20480;-76
2022/04/01 08:27:37;;;;;;;1.07;0.80;;;3.40;1.00;;;;;;5050028;28;20824;-76
2022/04/01 08:30:06;;;;;;;0.73;0.30;;;3.40;1.00;;;;;;5053052;28;20490;-76
2022/04/01 08:32:37;;;;;;;0.70;0.53;;;3.50;1.00;;;;;;5059913;28;20479;-77
2022/04/01 08:35:06;;;;;;;0.87;0.83;;;3.40;1.00;;;;;;5064629;28;20522;-76
2022/04/01 08:37:34;;;;;;;1.27;1.00;;;3.50;1.00;;;;;;5087851;28;20447;-76
2022/04/01 08:40:04;;;;;;;4.33;4.03;;;3.50;1.00;;;;;;5085215;28;20878;-76
2022/04/01 08:42:33;;;;;;;4.27;2.97;;;3.50;1.00;;;;;;5078318;28;20463;-75
2022/04/01 08:45:09;;;;;;;1.00;0.77;;;3.40;1.00;;;;;;5076946;28;20569;-78
2022/04/01 08:47:39;;;;;;;0.50;0.10;;;3.40;1.00;;;;;;5075340;28;21012;-75
2022/04/01 08:50:09;;;;;;;0.60;0.30;;;3.40;1.00;;;;;;5077740;28;20442;-75
2022/04/01 08:52:37;;;;;;;0.60;0.20;;;3.40;1.00;;;;;;5076372;28;20521;-76
2022/04/01 08:55:07;;;;;;;0.83;0.83;;;3.40;1.00;;;;;;5066931;28;20523;-75
2022/04/01 08:57:36;;;;;;;1.33;1.23;;;3.50;1.00;;;;;;5043195;28;20444;-75
2022/04/01 09:00:34;;;;;;;0.70;0.60;;;3.50;1.00;;;;;;5061347;28;20443;-76
2022/04/01 09:03:07;;;;;;;2.70;2.50;;;3.50;1.00;;;;;;5060975;28;20484;-76
2022/04/01 09:05:35;;;;;;;1.43;1.23;;;3.60;1.00;;;;;;5056275;28;21043;-76
2022/04/01 09:08:05;;;;;;;6.00;1.70;;;3.60;1.00;;;;;;5054774;28;20464;-75
2022/04/01 09:10:50;;;;;;;0.93;0.93;;;3.50;1.00;;;;;;5055840;28;20568;-77
2022/04/01 09:13:18;;;;;;;0.97;0.87;;;3.40;1.00;;;;;;5056480;28;20499;-75
2022/04/01 09:15:46;;;;;;;3.63;3.10;;;3.50;1.00;;;;;;5055617;28;20534;-77
2022/04/01 09:18:33;;;;;;;2.63;1.80;;;3.40;1.00;;;;;;5056380;28;20455;-77
2022/04/01 09:21:01;;;;;;;2.00;1.90;;;3.40;1.00;;;;;;5055087;28;20482;-78
2022/04/01 09:23:30;;;;;;;0.70;0.67;;;3.30;1.00;;;;;;5056673;28;20827;-77
2022/04/01 09:25:58;;;;;;;0.60;0.57;;;3.40;1.00;;;;;;5056969;28;20489;-76
2022/04/01 09:28:28;;;;;;;1.67;1.23;;;3.50;1.00;;;;;;5058049;28;21060;-77
2022/04/01 09:30:58;;;;;;;3.53;2.43;;;;;;;;;;5055372;28;20439;-75
2022/04/01 09:33:34;;;;;;;5.83;2.83;;;3.40;1.00;;;;;;5056409;28;20452;-76
2022/04/01 09:36:07;;;;;;;2.27;2.07;;;3.40;1.00;;;;;;5050391;28;20791;-75
2022/04/01 09:38:36;;;;;;;2.10;1.90;;;3.30;1.00;;;;;;5048103;28;20442;-77
2022/04/01 09:41:06;;;;;;;1.30;0.80;;;3.10;1.00;;;;;;5055423;28;20889;-79
2022/04/01 09:43:38;;;;;;;0.73;0.43;;;3.10;1.00;;;;;;5057311;28;20648;-75
2022/04/01 09:46:23;;;;;;;0.50;0.10;;;3.20;1.00;;;;;;5061479;28;20822;-76
2022/04/01 09:48:57;;;;;;;1.93;1.77;;;3.20;1.00;;;;;;5067206;28;20497;-74
2022/04/01 09:51:25;;;;;;;7.53;2.20;;;3.30;1.00;;;;;;5062203;28;20467;-76
2022/04/01 09:53:54;;;;;;;1.23;1.13;;;3.40;1.00;;;;;;5055061;28;20538;-76
2022/04/01 09:56:44;;;;;;;1.17;1.10;;;3.40;1.00;;;;;;5059978;28;20481;-76
2022/04/01 09:59:15;;;;;;;1.60;1.50;;;3.30;1.00;;;;;;5064285;28;20435;-77
2022/04/01 10:01:45;;;;;;;0.87;0.83;;;3.30;1.00;;;;;;5059849;28;20472;-77
2022/04/01 10:04:14;;;;;;;1.13;1.03;;;3.30;1.00;;;;;;5051867;28;20471;-77
2022/04/01 10:06:43;;;;;;;3.20;2.90;;;3.30;1.00;;;;;;5066382;28;20662;-74
2022/04/01 10:09:12;;;;;;;1.43;1.20;;;3.30;1.00;;;;;;5057631;28;20427;-75
2022/04/01 10:11:43;;;;;;;1.70;1.60;;;3.20;1.00;;;;;;5064836;28;20486;-76
2022/04/01 10:14:14;;;;;;;3.60;3.30;;;3.20;1.00;;;;;;5063491;28;20483;-75
2022/04/01 10:16:44;;;;;;;4.00;3.70;;;3.20;1.00;;;;;;5064229;28;20425;-76
2022/04/01 10:19:19;;;;;;;0.60;0.30;;;3.20;1.00;;;;;;5068019;28;20454;-76
2022/04/01 10:21:48;;;;;;;0.50;0.10;;;3.10;1.00;;;;;;5066518;28;20460;-75
2022/04/01 10:24:23;;;;;;;0.70;0.63;;;3.10;1.00;;;;;;5066247;28;20440;-75
2022/04/01 10:27:07;;;;;;;1.13;0.83;;;3.20;1.00;;;;;;5082823;28;20486;-76
2022/04/01 10:29:36;;;;;;;1.47;1.37;;;3.20;1.00;;;;;;5079482;28;20522;-74
2022/04/01 10:32:23;;;;;;;2.20;1.37;;;3.10;1.00;;;;;;5078835;28;20473;-75
2022/04/01 10:34:53;;;;;;;1.73;0.90;;;3.10;1.00;;;;;;5079688;28;20989;-75
2022/04/01 10:37:25;;;;;;;3.00;1.67;;;3.00;1.00;;;;;;5081404;28;20939;-75
2022/04/01 10:39:54;;;;;;;0.87;0.60;;;3.10;1.00;;;;;;5080937;28;21039;-74
2022/04/01 10:42:26;;;;;;;0.50;0.20;;;3.00;1.00;;;;;;5075680;28;20979;-76
2022/04/01 10:44:56;;;;;;;1.77;1.40;;;3.00;1.00;;;;;;5074805;28;20421;-77
2022/04/01 10:51:36;;;;;;;1.33;0.77;;;3.00;1.00;;;;;;5074551;28;20437;-74
2022/04/01 10:53:45;;;;;;;1.27;1.17;;;3.00;1.00;;;;;;5061667;28;20458;-76
2022/04/01 10:56:37;;;;;;;2.70;1.70;;;2.90;1.00;;;;;;5058929;28;20435;-76
2022/04/01 10:59:08;;;;;;;3.63;2.83;;;;;;;;;;5021500;28;20463;-77
2022/04/01 11:01:48;;;;;;;1.43;1.03;;;2.80;1.00;;;;;;5054697;28;20471;-76
2022/04/01 11:04:31;;;;;;;0.83;0.77;;;2.80;1.00;;;;;;5054072;28;20466;-75
2022/04/01 11:07:03;;;;;;;1.13;1.03;;;2.90;1.00;;;;;;5054185;28;20548;-75
2022/04/01 11:09:36;;;;;;;2.10;1.80;;;2.90;1.00;;;;;;5048463;28;20460;-77
2022/04/01 11:12:23;;;;;;;3.77;1.03;;;2.90;1.00;;;;;;5052990;28;20995;-75
2022/04/01 11:15:15;;;;;;;0.80;0.57;;;3.00;1.00;;;;;;5054018;28;20531;-76
2022/04/01 11:18:07;;;;;;;2.03;1.30;;;3.00;1.00;;;;;;5033284;28;20924;-76
2022/04/01 11:20:40;;;;;;;1.53;1.43;;;3.00;1.00;;;;;;5036247;28;20445;-75
2022/04/01 11:23:12;;;;;;;1.80;0.97;;;2.90;1.00;;;;;;5054103;28;20462;-77
2022/04/01 11:25:57;;;;;;;2.50;1.60;;;2.90;1.00;;;;;;5062210;28;20478;-76
2022/04/01 11:28:30;;;;;;;2.30;1.33;;;2.90;1.00;;;;;;5073979;28;20978;-77
2022/04/01 11:31:09;;;;;;;1.80;1.70;;;2.90;1.00;;;;;;5053641;28;20501;-76
2022/04/01 11:33:37;;;;;;;0.50;0.10;;;2.90;1.00;;;;;;5038853;28;20438;-76
2022/04/01 11:36:07;;;;;;;0.50;0.20;;;2.90;1.00;;;;;;5053939;28;20444;-77
2022/04/01 11:38:38;;;;;;;1.83;1.73;;;2.10;1.00;;;;;;5057321;28;20502;-75
2022/04/01 11:41:06;;;;;;;1.30;0.97;;;2.90;1.00;;;;;;5060126;28;20446;-76
2022/04/01 11:43:34;;;;;;;0.77;0.77;;;2.90;1.00;;;;;;5062201;28;20462;-75
2022/04/01 11:46:06;;;;;;;1.43;1.33;;;2.90;1.00;;;;;;5057382;28;20529;-76
2022/04/01 11:48:37;;;;;;;1.00;0.63;;;3.00;1.00;;;;;;5056777;28;20469;-77
2022/04/01 11:51:08;;;;;;;0.50;0.20;;;3.10;1.00;;;;;;5052395;28;20523;-73
2022/04/01 11:53:39;;;;;;;2.97;2.43;;;3.10;1.00;;;;;;5057521;28;20475;-74
2022/04/01 11:56:10;;;;;;;0.50;0.13;;;3.10;1.00;;;;;;5057574;28;20505;-77
2022/04/01 11:58:52;;;;;;;3.07;1.23;;;3.20;1.00;;;;;;5063270;28;20457;-76
2022/04/01 12:01:23;;;;;;;0.60;0.30;;;3.40;1.00;;;;;;5068557;28;20448;-76
2022/04/01 12:03:51;;;;;;;4.30;2.53;;;3.30;1.00;;;;;;5064595;28;20531;-75
2022/04/01 12:09:09;;;;;;;0.80;0.57;;;3.20;1.00;;;;;;5052680;28;20458;-76
2022/04/01 12:11:41;;;;;;;0.63;0.50;;;3.20;1.00;;;;;;5050669;28;20483;-77
2022/04/01 12:14:11;;;;;;;0.53;0.33;;;3.20;1.00;;;;;;5064106;28;20437;-76
2022/04/01 12:16:43;;;;;;;1.43;1.33;;;3.30;1.00;;;;;;5064752;28;20452;-74
2022/04/01 12:19:17;;;;;;;0.70;0.50;;;3.40;1.00;;;;;;5055269;28;20443;-77
2022/04/01 12:21:48;;;;;;;2.33;2.13;;;3.40;1.00;;;;;;5053647;28;20489;-77
2022/04/01 12:24:19;;;;;;;1.00;1.00;;;3.40;1.00;;;;;;5058528;28;20447;-77
2022/04/01 12:26:48;;;;;;;1.50;1.30;;;3.40;1.00;;;;;;5065117;28;21014;-77
2022/04/01 12:29:20;;;;;;;0.97;0.80;;;3.40;1.00;;;;;;5058122;28;20440;-74
2022/04/01 12:31:54;;;;;;;0.80;0.70;;;3.30;1.00;;;;;;5061830;28;20478;-76
2022/04/01 12:34:23;;;;;;;0.50;0.20;;;3.30;1.00;;;;;;5061029;28;20448;-76
2022/04/01 12:36:56;;;;;;;0.50;0.10;;;3.30;1.00;;;;;;5053479;28;20443;-76
2022/04/01 12:39:33;;;;;;;0.50;0.20;;;3.30;1.00;;;;;;5035891;28;20961;-76
2022/04/01 12:42:06;;;;;;;2.70;1.60;;;3.40;1.00;;;;;;5052587;28;20480;-75
2022/04/01 12:44:36;;;;;;;1.67;1.43;;;3.30;1.00;;;;;;5054748;28;20828;-76
2022/04/01 12:47:05;;;;;;;6.33;2.50;;;3.20;1.00;;;;;;5049930;28;20571;-75
2022/04/01 12:49:35;;;;;;;1.80;1.70;;;3.00;1.00;;;;;;5058712;28;20528;-74
2022/04/01 12:52:06;;;;;;;2.33;2.00;;;3.00;1.00;;;;;;5057019;28;20799;-76
2022/04/01 12:54:43;;;;;;;2.50;1.90;;;2.90;1.00;;;;;;5054499;28;20809;-78
2022/04/01 12:57:20;;;;;;;1.27;1.17;;;2.70;1.00;;;;;;5055475;28;20445;-75
2022/04/01 12:59:49;;;;;;;1.90;1.23;;;2.60;1.00;;;;;;5052866;28;20448;-75
2022/04/01 13:02:19;;;;;;;1.57;1.43;;;2.70;1.00;;;;;;5054041;28;20463;-75
2022/04/01 13:04:49;;;;;;;2.07;1.73;;;2.70;1.00;;;;;;5053701;28;20945;-75
2022/04/01 13:07:19;;;;;;;0.60;0.20;;;2.70;1.00;;;;;;5055626;28;20498;-76
2022/04/01 13:09:51;;;;;;;2.33;2.13;;;2.60;1.00;;;;;;5055631;28;20534;-77
2022/04/01 13:12:21;;;;;;;2.97;1.40;;;2.60;1.00;;;;;;5057853;28;21000;-77
2022/04/01 13:14:57;;;;;;;0.50;0.20;;;2.40;1.00;;;;;;5076034;28;20450;-78
2022/04/01 13:17:26;;;;;;;1.70;1.60;;;2.60;1.00;;;;;;5075281;28;20441;-76
2022/04/01 13:19:54;;;;;;;1.00;0.97;;;2.60;1.00;;;;;;5074869;28;20466;-77
2022/04/01 13:22:22;;;;;;;0.50;0.20;;;2.60;1.00;;;;;;5061537;28;20465;-75
2022/04/01 13:24:52;;;;;;;1.10;0.50;;;2.70;1.00;;;;;;5060556;28;20533;-75
2022/04/01 13:27:22;;;;;;;5.30;1.90;;;2.70;1.00;;;;;;5062105;28;20462;-76
2022/04/01 13:29:52;;;;;;;1.17;1.07;;;2.60;1.00;;;;;;5064420;28;20462;-75
2022/04/01 13:32:20;;;;;;;0.80;0.53;;;2.50;1.00;;;;;;5053489;28;20485;-76
2022/04/01 13:34:48;;;;;;;2.07;1.63;;;2.50;1.00;;;;;;5046477;28;20488;-74
2022/04/01 13:37:16;;;;;;;3.77;3.37;;;2.60;1.00;;;;;;5061419;28;20450;-77
2022/04/01 13:39:45;;;;;;;24.20;1.57;;;2.60;1.00;;;;;;5066422;28;20442;-76
2022/04/01 13:42:16;;;;;;;1.57;1.20;;;2.50;1.00;;;;;;5054702;28;20495;-75